Urmărește-ne

INCIDENT: Un ATR42 al companiei TAROM a ieșit de pe pista aeroportului din Chișinău la aterizare (VIDEO)

  1. BoardingPass.ro
  2. Incidente aviatice
  3. INCIDENT: Un ATR42 al companiei TAROM a ieșit de pe pista aeroportului din Chișinău la aterizare (VIDEO)

Incidente aviatice

INCIDENT: Un ATR42 al companiei TAROM a ieșit de pe pista aeroportului din Chișinău la aterizare (VIDEO)

Actualizare, 11 Septembrie: după mai bine de trei luni de la producerea incidentului, ATR-ul 42 (YR-ATB) al companiei TAROM s-a întors la București. Potrivit informațiilor pe care le avem, acestui avion i-a fost schimbat trenul de aterizare, iar începând de astăzi va reintra în serviciul comercial.
___________________
Actualizare, 20:35: mai jos regăsiți precizările făcute de TAROM cu privire la acest incident!

Cursa TAROM ROT 207 Bucureşti – Chisinau de astãzi 4 iunie 2017 operatã cu aeronavã ATR 42 a aterizat la ora 18: 12 minute pe aeroportul din Chisinau. In procedura de aterizare, in momentul franarii, din cauze inca necunoscute aeronava a avut niste deplasari anormale, echipajul depunand eforturi sa redreseze aeronava care a iesit usor din pista.

La bordul aeronavei se aflau 39 de pasageri care au fost debarcati in siguranta, nimeni nu a fost ranit. Aeronava va fi supusa unor verificari tehnice pe aeroportul din Chisinau.

Reamintim cã, prioritatea Companiei TAROM este siguranta pasagerilor sãi.

FOTOGRAFII:

____________
Actualizare, 19:45: aterizarile au fost reluate.
____________
În această după-amiază, o aeronavă de tip ATR42-500 a companiei TAROM, înmatriculată YR-ATB, care efectua zborul RO207 pe ruta București – Chișinău a ieșit de pe pistă în momentul aterizării.

Potrivit presei din Moldova, toți pasagerii au fost evacuați din avion în siguranță și sunt în afara oricărui pericol.

În acest moment, aeroportul din Chișinău este închis iar aeronavele care trebuie să aterizeze în capitala Republicii Moldova sunt redirecționate către Iași sau București.

Video:

METAR LUKK:
METAR LUKK 041700Z 17016KT CAVOK 23/13 Q1015 R08/CLRD// NOSIG=
METAR LUKK 041630Z 17015KT CAVOK 24/13 Q1015 R08/CLRD// NOSIG=
METAR LUKK 041600Z 17014KT CAVOK 25/14 Q1014 R08/CLRD// NOSIG=
METAR LUKK 041530Z 17016KT CAVOK 25/13 Q1015 R08/CLRD// NOSIG=
METAR LUKK 041500Z 17014KT CAVOK 25/13 Q1015 R08/CLRD// NOSIG=

Foto: privesc.eu

Ai avut un zbor anulat sau întârziat?
SOLICITĂ ACUM DESPĂGUBIRI DE PÂNĂ LA 600 DE EURO!
AirHelp get compensation
2 comentarii

2 Comments

  1. Pingback: Incident: Un Boeing 737-700 TAROM care a decolat de la Bruxelles s-a întors pe aeroport după ce un motor ar fi cedat (Foto) – BoardingPass.ro

  2. Pingback: Primul din cele două Boeinguri 737-800NG TAROM va opera astăzi primul zbor comercial – BoardingPass.ro

Vrei să zici ceva?

Adresa ta de email nu va fi publicată. Câmpurile obligatorii sunt marcate cu *

Acest sit folosește Akismet pentru a reduce spamul. Află cum sunt procesate datele comentariilor tale.

Știrile BoardingPass pe WhatsApp

Sign up to our WhatsApp newsletter to receive the latest offers and news about us!

Next Step

Știrile BoardingPass pe WhatsApp

I agree with all the terms, conditions and privacy policy that are linked below.

Știrile BoardingPass pe WhatsApp

Please save the number +40799889910 in your phone contacts as BoardingPass.ro.

Hit the button and send Clear for take-off! to add your number to BoardingPass.ro newsletter.

Open WhatsApp

Îți place BoardingPass?

Suține siteul cumpărând de pe FashionDays folosind acest link.
De asemenea, mai recomand și eMag.ro.
Ai avut un zbor anulat sau întârziat? SOLICITĂ ACUM DESPĂGUBIRI DE PÂNĂ LA 600 DE EURO! AirHelp get compensation

Suntem și pe…

Urmărește BoardingPass.ro pe Facebook     Urmărește BoardingPass.ro pe Instagram     Urmărește BoardingPass.ro pe Twitter     Urmărește BoardingPass.ro pe LinkedIn     Urmărește BoardingPass.ro pe RSS
Publicitate

Articole populare

Publicitate
Mergi sus